createdAt,value
2019-05-29T00:04:06.145Z,3.27
2019-05-29T00:09:08.600Z,4.53
2019-05-29T00:14:24.898Z,4.03
2019-05-29T00:19:14.916Z,4.58
2019-05-29T00:24:17.185Z,5.03
2019-05-29T00:29:19.475Z,6.30
2019-05-29T00:34:21.826Z,4.80
2019-05-29T00:39:24.086Z,8.73
2019-05-29T00:44:34.352Z,6.12
2019-05-29T00:49:30.931Z,4.30
2019-05-29T00:54:33.225Z,5.53
2019-05-29T00:59:35.520Z,7.40
2019-05-29T01:04:37.895Z,7.25
2019-05-29T01:09:40.485Z,6.42
2019-05-29T01:14:50.279Z,9.85
2019-05-29T01:19:46.774Z,7.03
2019-05-29T01:24:49.046Z,6.95
2019-05-29T01:29:51.317Z,11.35
2019-05-29T01:34:53.588Z,9.48
2019-05-29T01:39:55.858Z,9.70
2019-05-29T01:45:07.559Z,9.25
2019-05-29T01:50:02.152Z,10.43
2019-05-29T01:55:05.706Z,13.75
2019-05-29T02:00:09.065Z,12.78
2019-05-29T02:05:11.332Z,13.20
2019-05-29T02:10:13.790Z,15.08
2019-05-29T02:15:26.005Z,15.65
2019-05-29T02:20:21.157Z,16.35
2019-05-29T02:25:24.354Z,14.63
2019-05-29T02:30:30.336Z,13.68
2019-05-29T02:35:30.967Z,13.80
2019-05-29T02:40:33.348Z,15.15
2019-05-29T02:45:52.848Z,10.88
2019-05-29T02:50:39.758Z,9.88
2019-05-29T02:55:42.114Z,14.50
2019-05-29T03:00:46.027Z,12.85
2019-05-29T03:05:48.298Z,13.13
2019-05-29T03:10:51.243Z,14.73
2019-05-29T03:16:09.734Z,15.40
2019-05-29T03:20:57.608Z,13.10
2019-05-29T03:26:00.191Z,14.85
2019-05-29T03:31:02.474Z,13.63
2019-05-29T03:36:04.790Z,15.17
2019-05-29T03:41:07.070Z,15.40
2019-05-29T03:46:26.441Z,13.73
2019-05-29T03:51:13.392Z,13.45
2019-05-29T03:56:15.643Z,13.70
2019-05-29T04:01:17.924Z,13.80
2019-05-29T04:06:20.271Z,15.27
2019-05-29T04:11:22.550Z,14.20
2019-05-29T04:16:25.505Z,16.40
2019-05-29T04:21:29.548Z,17.50
2019-05-29T04:26:32.269Z,15.32
2019-05-29T04:31:36.572Z,13.20
2019-05-29T04:36:39.171Z,15.40
2019-05-29T04:41:41.592Z,15.43
2019-05-29T04:46:43.857Z,15.97
2019-05-29T04:51:46.349Z,16.10
2019-05-29T04:56:48.627Z,18.73
2019-05-29T05:01:50.886Z,15.03
2019-05-29T05:06:53.161Z,15.48
2019-05-29T05:11:55.724Z,17.10
2019-05-29T05:16:58.271Z,15.85
2019-05-29T05:22:00.572Z,14.45
2019-05-29T05:27:02.958Z,13.57
2019-05-29T05:32:05.241Z,16.35
2019-05-29T05:37:07.571Z,17.57
2019-05-29T05:42:09.878Z,13.85
2019-05-29T05:47:12.123Z,12.88
2019-05-29T05:52:14.500Z,14.70
2019-05-29T05:57:16.788Z,12.78
2019-05-29T06:02:19.143Z,12.42
2019-05-29T06:07:21.716Z,15.40
2019-05-29T06:12:24.003Z,13.32
2019-05-29T06:17:26.311Z,15.53
2019-05-29T06:22:28.857Z,15.70
2019-05-29T06:27:31.151Z,18.13
2019-05-29T06:32:33.603Z,13.38
2019-05-29T06:37:35.900Z,13.95
2019-05-29T06:42:38.246Z,11.95
2019-05-29T06:47:40.912Z,14.05
2019-05-29T06:52:43.658Z,11.33
2019-05-29T06:57:45.956Z,12.23
2019-05-29T07:02:48.306Z,12.70
2019-05-29T07:07:50.689Z,13.15
2019-05-29T07:12:53.027Z,12.13
2019-05-29T07:17:55.308Z,14.38
2019-05-29T07:22:57.598Z,11.38
2019-05-29T07:27:59.898Z,11.60
2019-05-29T07:33:02.262Z,10.28
2019-05-29T07:38:04.607Z,13.40
2019-05-29T07:43:06.887Z,12.64
2019-05-29T07:48:09.182Z,11.83
2019-05-29T07:53:11.551Z,9.23
2019-05-29T07:58:13.917Z,7.95
2019-05-29T08:03:16.274Z,9.85
2019-05-29T08:08:18.912Z,8.53
2019-05-29T08:13:21.197Z,7.25
2019-05-29T08:18:23.490Z,8.90
2019-05-29T08:23:25.750Z,7.35
2019-05-29T08:28:28.026Z,9.40
2019-05-29T08:33:30.470Z,7.50
2019-05-29T08:38:33.198Z,14.23
2019-05-29T08:43:35.532Z,10.10
2019-05-29T08:48:37.880Z,9.33
2019-05-29T08:53:40.196Z,7.25
2019-05-29T08:58:42.895Z,8.00
2019-05-29T09:03:46.634Z,9.45
2019-05-29T09:08:50.494Z,7.85
2019-05-29T09:13:53.163Z,6.53
2019-05-29T09:18:55.483Z,4.37
2019-05-29T09:23:58.804Z,6.80
2019-05-29T09:29:01.747Z,4.15
2019-05-29T09:34:04.216Z,7.40
2019-05-29T09:39:07.695Z,5.92
2019-05-29T09:44:25.108Z,9.35
2019-05-29T09:49:14.256Z,7.65
2019-05-29T09:54:16.966Z,6.90
2019-05-29T09:59:19.384Z,3.25
2019-05-29T10:04:21.698Z,12.13
2019-05-29T10:09:23.952Z,6.85
2019-05-29T10:14:26.328Z,4.87
2019-05-29T10:19:28.633Z,6.55
2019-05-29T10:24:32.412Z,6.87
2019-05-29T10:29:35.026Z,9.58
2019-05-29T10:34:37.322Z,17.90
2019-05-29T10:39:39.682Z,8.28
2019-05-29T10:44:42.957Z,9.45
2019-05-29T10:49:45.547Z,8.08
2019-05-29T10:54:48.126Z,10.18
2019-05-29T10:59:50.833Z,8.98
2019-05-29T11:04:56.728Z,9.45
2019-05-29T11:09:57.338Z,6.00
2019-05-29T11:14:59.627Z,5.47
2019-05-29T11:20:04.728Z,9.24
2019-05-29T11:25:21.663Z,7.58
2019-05-29T11:30:12.248Z,5.05
2019-05-29T11:35:14.872Z,7.58
2019-05-29T11:40:17.300Z,4.03
2019-05-29T11:45:19.757Z,5.30
2019-05-29T11:50:22.346Z,3.20
2019-05-29T11:55:25.162Z,4.58
2019-05-29T12:00:27.562Z,4.70
2019-05-29T12:05:29.915Z,6.77
2019-05-29T12:10:32.303Z,4.70
2019-05-29T12:15:34.590Z,3.72
2019-05-29T12:20:36.953Z,4.57
2019-05-29T12:25:39.254Z,6.28
2019-05-29T12:30:41.591Z,5.62
2019-05-29T12:35:44.320Z,7.75
2019-05-29T12:40:46.633Z,6.05
2019-05-29T12:45:48.950Z,5.37
2019-05-29T12:50:51.508Z,7.30
2019-05-29T12:55:54.025Z,3.58
2019-05-29T13:00:56.514Z,4.35
2019-05-29T13:05:58.903Z,7.05
2019-05-29T13:11:02.516Z,4.78
2019-05-29T13:16:05.347Z,3.45
2019-05-29T13:21:07.722Z,5.90
2019-05-29T13:26:10.154Z,2.33
2019-05-29T13:31:12.415Z,3.00
2019-05-29T13:36:15.096Z,2.67
2019-05-29T13:41:17.497Z,1.87
2019-05-29T13:46:19.773Z,1.65
2019-05-29T13:51:22.047Z,2.37
2019-05-29T13:56:24.578Z,2.20
2019-05-29T14:01:26.989Z,1.80
2019-05-29T14:06:29.316Z,2.05
2019-05-29T14:11:31.663Z,2.45
2019-05-29T14:16:33.947Z,2.75
2019-05-29T14:21:36.342Z,2.90
2019-05-29T14:26:38.681Z,1.60
2019-05-29T14:31:41.043Z,3.33
2019-05-29T14:36:43.273Z,3.92
2019-05-29T14:41:45.571Z,3.20
2019-05-29T14:46:47.882Z,2.37
2019-05-29T14:51:50.241Z,2.92
2019-05-29T14:56:53.484Z,1.65
2019-05-29T15:01:55.897Z,1.72
2019-05-29T15:06:58.177Z,1.98
2019-05-29T15:12:01.368Z,2.50
2019-05-29T15:17:05.025Z,3.02
2019-05-29T15:22:09.275Z,1.35
2019-05-29T15:27:12.072Z,1.35
2019-05-29T15:32:14.668Z,1.33
2019-05-29T15:37:18.814Z,1.30
2019-05-29T15:42:21.030Z,0.98
2019-05-29T15:47:23.490Z,1.02
2019-05-29T15:52:25.751Z,1.37
2019-05-29T15:57:28.037Z,2.10
2019-05-29T16:02:30.440Z,1.57
2019-05-29T16:07:32.711Z,3.17
2019-05-29T16:12:35.038Z,2.75
2019-05-29T16:17:37.375Z,2.62
2019-05-29T16:22:39.679Z,4.25
2019-05-29T16:27:42.190Z,13.15
2019-05-29T16:32:45.069Z,1.50
2019-05-29T16:37:47.358Z,1.30
2019-05-29T16:42:49.775Z,2.12
2019-05-29T16:47:52.223Z,0.70
2019-05-29T16:52:54.499Z,1.17
2019-05-29T16:57:56.837Z,0.93
2019-05-29T17:02:59.122Z,1.17
2019-05-29T17:08:01.456Z,1.75
2019-05-29T17:13:04.581Z,1.10
2019-05-29T17:18:06.943Z,1.67
2019-05-29T17:23:09.517Z,2.42
2019-05-29T17:28:11.921Z,1.67
2019-05-29T17:33:15.095Z,1.07
2019-05-29T17:38:18.915Z,1.27
2019-05-29T17:43:24.915Z,3.90
2019-05-29T17:48:26.043Z,1.65
2019-05-29T17:53:28.440Z,2.67
2019-05-29T17:58:30.786Z,0.83
2019-05-29T18:03:33.077Z,2.27
2019-05-29T18:08:35.449Z,1.20
2019-05-29T18:13:38.174Z,1.27
2019-05-29T18:18:40.518Z,0.90
2019-05-29T18:23:42.858Z,1.90
2019-05-29T18:28:45.446Z,1.15
2019-05-29T18:33:47.751Z,1.67
2019-05-29T18:38:50.099Z,1.33
2019-05-29T18:43:52.573Z,2.92
2019-05-29T18:48:54.856Z,3.75
2019-05-29T18:53:57.309Z,1.67
2019-05-29T18:58:59.808Z,3.57
2019-05-29T19:04:03.241Z,4.43
2019-05-29T19:09:07.159Z,2.52
2019-05-29T19:14:10.094Z,5.72
2019-05-29T19:19:12.938Z,5.47
2019-05-29T19:24:15.426Z,4.33
2019-05-29T19:29:17.782Z,4.97
2019-05-29T19:34:21.256Z,2.80
2019-05-29T19:39:24.379Z,5.92
2019-05-29T19:44:28.377Z,1.86
2019-05-29T19:49:31.303Z,3.70
2019-05-29T19:54:33.939Z,4.75
2019-05-29T19:59:36.921Z,4.08
2019-05-29T20:04:39.934Z,2.20
2019-05-29T20:09:42.798Z,6.27
2019-05-29T20:14:45.219Z,7.50
2019-05-29T20:19:47.814Z,5.58
2019-05-29T20:24:50.476Z,8.25
2019-05-29T20:29:53.141Z,4.28
2019-05-29T20:34:56.160Z,3.65
2019-05-29T20:39:58.724Z,4.40
2019-05-29T20:45:01.068Z,3.15
2019-05-29T20:50:04.870Z,3.87
2019-05-29T20:55:07.450Z,6.05
2019-05-29T21:00:10.344Z,6.92
2019-05-29T21:05:13.375Z,3.17
2019-05-29T21:10:15.880Z,4.25
2019-05-29T21:15:18.945Z,4.85
2019-05-29T21:20:21.240Z,3.77
2019-05-29T21:25:23.615Z,4.33
2019-05-29T21:30:26.074Z,3.57
2019-05-29T21:35:28.415Z,2.30
2019-05-29T21:40:30.773Z,2.00
2019-05-29T21:45:33.331Z,2.92
2019-05-29T21:50:37.054Z,3.30
2019-05-29T21:55:39.610Z,5.10
2019-05-29T22:00:44.565Z,4.28
2019-05-29T22:05:47.156Z,2.92
2019-05-29T22:10:49.445Z,4.25
2019-05-29T22:15:52.645Z,3.90
2019-05-29T22:20:57.050Z,3.50
2019-05-29T22:25:59.425Z,2.37
2019-05-29T22:31:01.908Z,5.20
2019-05-29T22:36:04.349Z,2.80
2019-05-29T22:46:14.801Z,2.77
2019-05-29T22:51:17.149Z,3.02
2019-05-29T22:56:19.655Z,4.97
2019-05-29T23:01:21.969Z,11.40
2019-05-29T23:06:24.249Z,4.80
2019-05-29T23:11:26.520Z,6.78
2019-05-29T23:16:28.798Z,5.17
2019-05-29T23:21:31.084Z,3.00
2019-05-29T23:26:33.507Z,4.23
2019-05-29T23:31:35.785Z,3.00
2019-05-29T23:36:38.348Z,3.40
2019-05-29T23:41:40.643Z,3.27
2019-05-29T23:46:42.944Z,3.80
2019-05-29T23:51:45.237Z,4.83
2019-05-29T23:56:47.565Z,5.77
